Time;durP1;ratioP1;P1;durP2;ratioP2;P2;SDS_P1;SDS_P2;PMS_P1;PMS_P2;Temp;Humidity;BMP_temperature;BMP_pressure;BME280_temperature;BME280_humidity;BME280_pressure;Samples;Min_cycle;Max_cycle;Signal;HPM_P1;HPM_P2
2023/02/25 00:02:49;;;;;;;5.57;2.47;;;10.10;69.20;;;;;;10361520;28;20052;-59
2023/02/25 00:07:50;;;;;;;3.47;1.63;;;10.10;69.10;;;;;;10361635;28;20044;-58
2023/02/25 00:12:51;;;;;;;4.82;1.63;;;10.10;68.90;;;;;;10363478;28;20105;-59
2023/02/25 00:17:51;;;;;;;3.35;1.30;;;10.20;68.80;;;;;;10361092;28;20075;-58
2023/02/25 00:22:52;;;;;;;4.70;1.48;;;10.20;68.70;;;;;;10361200;28;20041;-58
2023/02/25 00:27:53;;;;;;;4.90;2.05;;;10.20;68.80;;;;;;10362156;28;20104;-59
2023/02/25 00:32:53;;;;;;;4.40;1.80;;;10.20;68.80;;;;;;10362275;28;20304;-59
2023/02/25 00:37:54;;;;;;;4.78;1.58;;;10.10;68.90;;;;;;10360306;28;20145;-59
2023/02/25 00:42:54;;;;;;;2.85;1.60;;;10.10;68.90;;;;;;10343832;28;20417;-59
2023/02/25 00:47:55;;;;;;;2.85;1.38;;;10.10;68.80;;;;;;10343456;28;20517;-59
2023/02/25 00:52:56;;;;;;;4.43;1.98;;;10.20;68.80;;;;;;10361290;28;20421;-59
2023/02/25 00:58:02;;;;;;;4.53;1.63;;;10.20;68.70;;;;;;10360485;28;20121;-59
2023/02/25 01:03:03;;;;;;;4.72;1.27;;;10.20;68.70;;;;;;10360267;28;20504;-59
2023/02/25 01:08:03;;;;;;;3.88;1.27;;;10.10;68.80;;;;;;10343560;28;20041;-59
2023/02/25 01:13:05;;;;;;;3.90;1.80;;;10.10;68.80;;;;;;10361004;28;20057;-58
2023/02/25 01:18:06;;;;;;;3.92;1.65;;;10.20;68.70;;;;;;10359630;28;20388;-59
2023/02/25 01:23:07;;;;;;;2.70;1.20;;;10.20;68.60;;;;;;10359043;28;20041;-59
2023/02/25 01:28:08;;;;;;;3.63;1.42;;;10.20;68.50;;;;;;10359472;28;20033;-59
2023/02/25 01:33:08;;;;;;;4.72;1.33;;;10.20;68.60;;;;;;10359113;28;20022;-59
2023/02/25 01:38:09;;;;;;;5.10;2.35;;;10.20;68.60;;;;;;10360133;28;20136;-59
2023/02/25 01:43:17;;;;;;;3.58;1.20;;;10.20;68.50;;;;;;10359066;28;21146;-59
2023/02/25 01:48:23;;;;;;;3.88;1.60;;;10.20;68.40;;;;;;10359081;28;20030;-59
2023/02/25 01:53:33;;;;;;;4.93;1.70;;;10.20;68.40;;;;;;10359230;28;20481;-59
2023/02/25 01:58:33;;;;;;;4.10;1.90;;;10.20;68.40;;;;;;10364465;28;20040;-59
2023/02/25 02:03:36;;;;;;;3.85;1.67;;;10.20;68.30;;;;;;10366204;28;20409;-59
2023/02/25 02:08:39;;;;;;;2.72;1.27;;;10.20;68.40;;;;;;10366009;28;20010;-59
2023/02/25 02:13:46;;;;;;;4.22;2.05;;;10.20;68.40;;;;;;10365503;28;20014;-59
2023/02/25 02:18:55;;;;;;;5.15;1.42;;;10.20;68.40;;;;;;10365807;28;20386;-59
2023/02/25 02:24:28;;;;;;;3.35;1.15;;;10.10;68.50;;;;;;10365496;28;20397;-59
2023/02/25 02:29:56;;;;;;;4.43;1.33;;;10.10;68.50;;;;;;10365469;28;20085;-59
2023/02/25 02:35:27;;;;;;;5.00;1.58;;;10.10;68.60;;;;;;10366127;28;20054;-59
2023/02/25 02:40:51;;;;;;;3.13;1.38;;;10.10;68.60;;;;;;10339850;28;20305;-59
2023/02/25 02:46:13;;;;;;;2.65;1.15;;;10.10;68.60;;;;;;10324055;28;20378;-59
2023/02/25 02:51:23;;;;;;;3.10;1.40;;;10.10;68.60;;;;;;10325403;28;20037;-59
2023/02/25 02:56:27;;;;;;;3.60;1.50;;;10.10;68.70;;;;;;10325523;28;20092;-59
2023/02/25 03:01:40;;;;;;;4.70;1.42;;;10.10;68.70;;;;;;10323476;28;20087;-59
2023/02/25 03:06:52;;;;;;;3.08;1.13;;;10.10;68.50;;;;;;10323242;28;20010;-59
2023/02/25 03:11:53;;;;;;;8.98;2.40;;;10.10;68.50;;;;;;10323180;28;20494;-59
2023/02/25 03:17:04;;;;;;;5.18;1.88;;;10.10;68.50;;;;;;10322632;28;20034;-59
2023/02/25 03:22:19;;;;;;;8.38;2.17;;;10.10;68.40;;;;;;10322817;28;20065;-59
2023/02/25 03:27:33;;;;;;;6.72;1.92;;;10.10;68.30;;;;;;10322527;28;20080;-59
2023/02/25 03:32:37;;;;;;;2.92;1.92;;;10.10;68.30;;;;;;10330692;28;20323;-59
2023/02/25 03:37:42;;;;;;;2.47;0.80;;;10.10;68.30;;;;;;10362546;28;20501;-59
2023/02/25 03:42:57;;;;;;;3.45;1.58;;;10.10;68.60;;;;;;10362698;28;20092;-59
2023/02/25 03:47:59;;;;;;;5.68;1.60;;;10.10;68.60;;;;;;10362592;28;20373;-59
2023/02/25 03:52:59;;;;;;;3.97;1.40;;;10.00;68.60;;;;;;10345603;28;20535;-59
2023/02/25 03:58:00;;;;;;;3.47;0.85;;;10.00;68.60;;;;;;10361777;28;20071;-59
2023/02/25 04:03:01;;;;;;;4.38;2.08;;;10.10;68.50;;;;;;10361644;28;20038;-59
2023/02/25 04:08:01;;;;;;;4.13;1.70;;;10.10;68.20;;;;;;10361335;28;20018;-59
2023/02/25 04:13:02;;;;;;;4.97;1.08;;;10.20;68.20;;;;;;10362937;28;20014;-59
2023/02/25 04:18:03;;;;;;;5.68;1.60;;;10.20;68.40;;;;;;10360937;28;20101;-58
2023/02/25 04:23:04;;;;;;;5.05;1.35;;;10.10;68.20;;;;;;10344536;28;20038;-59
2023/02/25 04:28:04;;;;;;;3.10;0.90;;;10.10;68.20;;;;;;10360793;28;20100;-59
2023/02/25 04:33:05;;;;;;;6.78;3.35;;;10.10;68.30;;;;;;10360688;28;20030;-59
2023/02/25 04:38:06;;;;;;;2.90;1.25;;;10.10;68.30;;;;;;10360241;28;20148;-58
2023/02/25 04:43:08;;;;;;;3.92;1.25;;;10.20;68.20;;;;;;10360482;28;20277;-59
2023/02/25 04:48:09;;;;;;;3.92;1.50;;;10.20;68.20;;;;;;10360819;28;20025;-59
2023/02/25 04:53:09;;;;;;;4.95;1.38;;;10.20;68.20;;;;;;10361221;28;20026;-59
2023/02/25 04:58:11;;;;;;;6.00;1.80;;;10.10;68.20;;;;;;10359589;28;20489;-59
2023/02/25 05:03:12;;;;;;;4.07;1.10;;;10.10;68.30;;;;;;10360223;28;20061;-59
2023/02/25 05:08:13;;;;;;;3.10;0.98;;;10.20;68.30;;;;;;10359775;28;20466;-58
2023/02/25 05:13:14;;;;;;;5.57;1.58;;;10.20;68.30;;;;;;10359776;28;20026;-59
2023/02/25 05:18:15;;;;;;;4.00;1.20;;;10.10;68.20;;;;;;10359656;28;20028;-59
2023/02/25 05:23:16;;;;;;;5.25;1.35;;;10.10;68.20;;;;;;10359774;28;20400;-59
2023/02/25 05:28:17;;;;;;;4.93;1.38;;;10.10;68.20;;;;;;10359289;28;20184;-59
2023/02/25 05:33:17;;;;;;;3.38;1.63;;;10.10;68.20;;;;;;10365914;28;20116;-58
2023/02/25 05:38:18;;;;;;;4.13;1.45;;;10.20;68.10;;;;;;10366935;28;20405;-59
2023/02/25 05:43:19;;;;;;;4.68;1.33;;;10.10;68.10;;;;;;10368071;28;20520;-59
2023/02/25 05:48:20;;;;;;;3.70;0.95;;;10.10;68.10;;;;;;10366857;28;20428;-59
2023/02/25 05:53:21;;;;;;;4.22;1.30;;;10.10;68.20;;;;;;10366492;28;20029;-58
2023/02/25 05:58:22;;;;;;;3.85;1.38;;;10.10;68.20;;;;;;10366701;28;20053;-59
2023/02/25 06:03:23;;;;;;;4.93;1.27;;;10.10;68.10;;;;;;10349553;28;20065;-59
2023/02/25 06:08:23;;;;;;;2.45;0.85;;;10.20;68.00;;;;;;10367234;28;20109;-59
2023/02/25 06:13:24;;;;;;;2.90;1.17;;;10.10;67.90;;;;;;10365789;28;20454;-59
2023/02/25 06:18:25;;;;;;;4.45;1.15;;;10.10;68.10;;;;;;10365497;28;20014;-59
2023/02/25 06:23:26;;;;;;;3.08;1.23;;;10.10;68.10;;;;;;10365625;28;20034;-58
2023/02/25 06:28:26;;;;;;;5.07;1.60;;;10.10;68.10;;;;;;10365756;28;20478;-58
2023/02/25 06:33:31;;;;;;;5.10;1.33;;;10.10;68.00;;;;;;10362783;28;20108;-58
2023/02/25 06:38:33;;;;;;;6.15;1.63;;;10.20;67.90;;;;;;10365774;28;20127;-59
2023/02/25 06:43:35;;;;;;;3.63;1.25;;;10.10;68.00;;;;;;10366221;28;20030;-59
2023/02/25 06:48:35;;;;;;;3.15;0.95;;;10.10;68.00;;;;;;10365816;28;20014;-58
2023/02/25 06:53:38;;;;;;;3.53;0.93;;;10.10;68.10;;;;;;10365982;28;20080;-58
2023/02/25 06:58:39;;;;;;;3.83;1.00;;;10.10;68.70;;;;;;10366727;28;20101;-59
2023/02/25 07:03:42;;;;;;;1.73;0.70;;;10.10;68.00;;;;;;10365434;28;20030;-59
2023/02/25 07:08:44;;;;;;;3.13;1.63;;;10.10;68.00;;;;;;10365138;28;20458;-58
2023/02/25 07:13:49;;;;;;;2.75;1.02;;;10.10;68.10;;;;;;10364225;28;20464;-58
2023/02/25 07:18:50;;;;;;;2.92;1.30;;;10.10;68.20;;;;;;10364978;28;20022;-59
2023/02/25 07:23:51;;;;;;;2.78;0.80;;;10.10;68.20;;;;;;10348093;28;20505;-59
2023/02/25 07:28:51;;;;;;;2.72;1.42;;;10.20;68.10;;;;;;10365408;28;20109;-59
2023/02/25 07:33:54;;;;;;;3.70;1.05;;;10.20;68.10;;;;;;10365648;28;20152;-59
2023/02/25 07:38:54;;;;;;;2.90;0.90;;;10.20;68.10;;;;;;10339680;28;20038;-59
2023/02/25 07:43:55;;;;;;;5.00;1.55;;;10.20;68.30;;;;;;10323455;28;20043;-58
2023/02/25 07:48:56;;;;;;;2.13;0.93;;;10.10;68.30;;;;;;10323244;28;20019;-59
2023/02/25 07:53:57;;;;;;;3.03;1.52;;;10.10;68.40;;;;;;10323287;28;20023;-59
2023/02/25 07:58:58;;;;;;;2.45;1.20;;;10.10;68.40;;;;;;10322519;28;20026;-58
2023/02/25 08:04:05;;;;;;;4.13;1.08;;;10.10;68.60;;;;;;10306403;28;20030;-58
2023/02/25 08:09:09;;;;;;;3.00;1.30;;;10.10;68.60;;;;;;10306364;28;20029;-58
2023/02/25 08:14:10;;;;;;;3.42;0.80;;;10.10;68.70;;;;;;10306499;28;20113;-59
2023/02/25 08:19:11;;;;;;;4.78;2.15;;;10.10;68.60;;;;;;10322286;28;20470;-59
2023/02/25 08:24:12;;;;;;;6.20;2.00;;;10.10;68.50;;;;;;10322119;28;20130;-61
2023/02/25 08:29:12;;;;;;;1.98;0.88;;;10.10;68.40;;;;;;10323016;28;20017;-59
2023/02/25 08:34:13;;;;;;;2.40;1.20;;;10.10;68.50;;;;;;10322393;28;20078;-59
2023/02/25 08:39:14;;;;;;;2.30;1.00;;;10.10;68.60;;;;;;10321774;28;20560;-59
2023/02/25 08:44:14;;;;;;;4.15;1.70;;;10.10;68.80;;;;;;10304900;28;20117;-59
2023/02/25 08:49:15;;;;;;;2.13;0.77;;;10.10;68.90;;;;;;10322891;28;20451;-58
2023/02/25 08:54:16;;;;;;;1.73;0.75;;;10.10;68.90;;;;;;10320880;28;20050;-59
2023/02/25 08:59:16;;;;;;;2.85;0.80;;;10.10;68.80;;;;;;10320489;28;20076;-58
2023/02/25 09:04:21;;;;;;;4.30;1.83;;;10.10;68.80;;;;;;10322212;28;20593;-59
2023/02/25 09:09:22;;;;;;;5.38;1.75;;;10.10;68.80;;;;;;10321138;28;20050;-59
2023/02/25 09:14:22;;;;;;;3.50;1.10;;;10.10;68.80;;;;;;10320549;28;20134;-59
2023/02/25 09:19:23;;;;;;;5.00;1.10;;;10.10;68.90;;;;;;10320170;28;20129;-59
2023/02/25 09:24:26;;;;;;;3.28;1.00;;;10.10;69.00;;;;;;10303967;28;20761;-59
2023/02/25 09:29:27;;;;;;;3.65;1.08;;;10.10;69.00;;;;;;10320156;28;20029;-59
2023/02/25 09:34:27;;;;;;;3.17;0.82;;;10.10;69.30;;;;;;10343872;28;20482;-59
2023/02/25 09:39:28;;;;;;;2.97;1.13;;;10.00;69.60;;;;;;10360300;28;20018;-60
2023/02/25 09:44:52;;;;;;;2.42;0.63;;;10.00;69.90;;;;;;10360283;28;20037;-59
2023/02/25 09:50:17;;;;;;;3.22;0.82;;;10.10;69.90;;;;;;10360149;28;20072;-59
2023/02/25 09:55:20;;;;;;;2.50;0.80;;;10.10;69.70;;;;;;10360137;28;20041;-59
2023/02/25 10:00:22;;;;;;;3.88;1.45;;;10.10;69.90;;;;;;10361203;28;20057;-59
2023/02/25 10:05:44;;;;;;;3.70;0.70;;;10.10;69.90;;;;;;10359911;28;20030;-59
2023/02/25 10:11:05;;;;;;;1.10;0.70;;;10.10;70.10;;;;;;10360075;28;20032;-59
2023/02/25 10:16:38;;;;;;;1.90;0.57;;;10.10;70.10;;;;;;10360498;28;20030;-59
2023/02/25 10:22:05;;;;;;;2.65;0.70;;;10.20;70.10;;;;;;10368316;28;20100;-58
2023/02/25 10:27:32;;;;;;;3.20;0.73;;;10.20;70.00;;;;;;10369062;28;20472;-59
2023/02/25 10:32:35;;;;;;;1.95;1.05;;;10.20;70.00;;;;;;10367128;28;20587;-59
2023/02/25 10:37:37;;;;;;;3.30;1.00;;;10.10;70.00;;;;;;10366707;28;20184;-59
2023/02/25 10:42:37;;;;;;;2.28;0.68;;;10.10;70.00;;;;;;10367210;28;20030;-59
2023/02/25 10:47:43;;;;;;;2.95;1.10;;;10.10;70.10;;;;;;10367571;28;20042;-59
2023/02/25 10:52:53;;;;;;;2.80;1.08;;;10.10;70.10;;;;;;10349619;28;20026;-59
2023/02/25 10:57:54;;;;;;;3.53;0.90;;;10.10;70.10;;;;;;10366876;28;20517;-59
2023/02/25 11:02:57;;;;;;;2.72;0.60;;;10.10;70.10;;;;;;10366707;28;20084;-58
2023/02/25 11:07:57;;;;;;;4.28;1.13;;;10.10;70.10;;;;;;10365610;28;20017;-59
2023/02/25 11:12:59;;;;;;;1.77;0.60;;;10.10;70.20;;;;;;10364927;28;20021;-59
2023/02/25 11:18:14;;;;;;;1.98;0.95;;;10.10;70.10;;;;;;10365851;28;20030;-59
2023/02/25 11:23:34;;;;;;;1.38;0.50;;;10.10;70.10;;;;;;10364872;28;20104;-59
2023/02/25 11:28:40;;;;;;;3.50;0.60;;;10.10;70.10;;;;;;10363925;28;20020;-59
2023/02/25 11:33:49;;;;;;;1.65;0.93;;;10.10;70.30;;;;;;10363920;28;20021;-58
2023/02/25 11:39:04;;;;;;;2.13;0.60;;;10.20;70.30;;;;;;10363904;28;20053;-59
2023/02/25 11:44:41;;;;;;;2.75;0.98;;;10.20;70.10;;;;;;10363795;28;20113;-59
2023/02/25 11:49:57;;;;;;;2.75;0.70;;;10.20;70.20;;;;;;10364831;28;20538;-59
2023/02/25 11:55:23;;;;;;;2.83;0.60;;;10.20;70.20;;;;;;10364694;28;20050;-59
2023/02/25 12:01:01;;;;;;;1.25;0.60;;;10.20;70.10;;;;;;10364643;28;20056;-59
2023/02/25 12:06:47;;;;;;;1.60;0.55;;;10.20;70.30;;;;;;10345736;28;20041;-58
2023/02/25 12:12:02;;;;;;;2.20;0.70;;;10.20;70.10;;;;;;10362604;28;20519;-58
2023/02/25 12:17:27;;;;;;;1.73;0.52;;;10.20;70.10;;;;;;10362705;28;20018;-58
2023/02/25 12:22:48;;;;;;;1.67;0.60;;;10.20;70.00;;;;;;10363282;28;20026;-58
2023/02/25 12:28:33;;;;;;;1.00;0.50;;;10.30;70.10;;;;;;10362563;28;20113;-59
2023/02/25 12:33:56;;;;;;;1.83;0.50;;;10.30;70.00;;;;;;10363388;28;20021;-59
2023/02/25 12:39:13;;;;;;;2.63;0.68;;;10.30;70.10;;;;;;10362669;28;20133;-59
2023/02/25 12:44:46;;;;;;;1.02;0.40;;;10.40;69.90;;;;;;10362171;28;20112;-59
2023/02/25 12:50:16;;;;;;;2.20;0.95;;;10.40;69.90;;;;;;10361549;28;20026;-58
2023/02/25 12:55:58;;;;;;;1.77;0.60;;;10.40;69.90;;;;;;10361823;28;20450;-59
2023/02/25 13:01:13;;;;;;;2.17;1.13;;;10.40;69.80;;;;;;10362383;28;20400;-58
2023/02/25 13:06:52;;;;;;;2.53;0.50;;;10.50;69.80;;;;;;10362303;28;20022;-59
2023/02/25 13:12:07;;;;;;;2.53;0.40;;;10.50;69.60;;;;;;10362332;28;20033;-59
2023/02/25 13:17:24;;;;;;;1.70;0.47;;;10.60;69.70;;;;;;10362071;28;20065;-58
2023/02/25 13:23:05;;;;;;;1.27;0.47;;;10.60;69.70;;;;;;10360886;28;20186;-58
2023/02/25 13:28:48;;;;;;;1.95;0.50;;;10.60;69.50;;;;;;10362307;28;20037;-59
2023/02/25 13:34:15;;;;;;;0.68;0.30;;;10.60;69.50;;;;;;10375236;28;20066;-59
2023/02/25 13:39:50;;;;;;;1.20;0.40;;;10.70;69.40;;;;;;10336328;28;20565;-59
2023/02/25 13:45:33;;;;;;;1.42;0.47;;;10.80;69.10;;;;;;10320903;28;20042;-59
2023/02/25 13:51:11;;;;;;;0.93;0.40;;;10.90;68.90;;;;;;10321086;28;20110;-59
2023/02/25 13:56:49;;;;;;;3.85;0.80;;;10.90;69.00;;;;;;10327402;28;20026;-59
2023/02/25 14:02:25;;;;;;;4.20;0.68;;;10.90;68.80;;;;;;10329261;28;20034;-58
2023/02/25 14:08:20;;;;;;;2.08;0.45;;;10.90;68.90;;;;;;10328488;28;20018;-58
2023/02/25 14:13:54;;;;;;;1.25;0.47;;;11.00;68.90;;;;;;10305760;28;20062;-58
2023/02/25 14:19:28;;;;;;;2.38;0.70;;;11.00;68.70;;;;;;10326614;28;20026;-59
2023/02/25 14:25:25;;;;;;;1.17;0.32;;;11.10;68.50;;;;;;10310990;28;20053;-59
2023/02/25 14:30:48;;;;;;;1.95;0.50;;;11.10;68.60;;;;;;10311629;28;20421;-59
2023/02/25 14:36:12;;;;;;;1.65;0.38;;;11.10;68.60;;;;;;10326890;28;20077;-58
2023/02/25 14:41:39;;;;;;;1.60;0.60;;;11.10;68.40;;;;;;10326180;28;20128;-58
2023/02/25 14:46:55;;;;;;;2.33;0.60;;;11.10;68.70;;;;;;10327209;28;20073;-58
2023/02/25 14:52:25;;;;;;;0.90;0.40;;;11.10;68.60;;;;;;10325641;28;20019;-58
2023/02/25 14:57:47;;;;;;;1.30;0.43;;;11.10;68.60;;;;;;10326493;28;20030;-58
2023/02/25 15:03:34;;;;;;;0.90;0.40;;;11.10;68.60;;;;;;10325086;28;20045;-58
2023/02/25 15:09:05;;;;;;;1.92;0.40;;;11.10;68.50;;;;;;10326310;28;20290;-59
2023/02/25 15:14:44;;;;;;;2.20;0.50;;;11.10;68.20;;;;;;10326123;28;20470;-59
2023/02/25 15:19:57;;;;;;;0.70;0.30;;;11.10;68.40;;;;;;10327369;28;20026;-58
2023/02/25 15:25:19;;;;;;;0.80;0.35;;;11.10;68.60;;;;;;10308962;28;20069;-58
2023/02/25 15:30:23;;;;;;;2.58;0.50;;;11.00;68.60;;;;;;10325147;28;20322;-58
2023/02/25 15:35:36;;;;;;;0.47;0.30;;;11.00;68.80;;;;;;10338743;28;20141;-58
2023/02/25 15:40:52;;;;;;;1.35;0.40;;;10.90;69.00;;;;;;10364785;28;20056;-58
2023/02/25 15:46:19;;;;;;;1.48;0.50;;;10.90;69.10;;;;;;10363720;28;20046;-59
2023/02/25 15:51:43;;;;;;;0.80;0.30;;;10.80;69.00;;;;;;10364599;28;20069;-58
2023/02/25 15:56:50;;;;;;;0.80;0.40;;;10.80;69.20;;;;;;10363088;28;20539;-59
2023/02/25 16:01:51;;;;;;;1.75;0.30;;;10.80;69.20;;;;;;10363380;28;20029;-59
2023/02/25 16:06:53;;;;;;;0.63;0.25;;;10.80;69.20;;;;;;10363440;28;20029;-59
2023/02/25 16:11:56;;;;;;;1.42;0.60;;;10.80;69.20;;;;;;10363732;28;20026;-59
2023/02/25 16:17:18;;;;;;;1.13;0.32;;;10.70;69.30;;;;;;10362977;28;20025;-58
2023/02/25 16:22:23;;;;;;;1.98;0.40;;;10.70;69.30;;;;;;10362816;28;20030;-59
2023/02/25 16:28:18;;;;;;;2.70;0.68;;;10.70;69.30;;;;;;10362262;28;20457;-58
2023/02/25 16:33:48;;;;;;;0.75;0.50;;;10.70;69.40;;;;;;10369985;28;20038;-59
2023/02/25 16:39:11;;;;;;;0.77;0.40;;;10.60;69.40;;;;;;10361724;28;20061;-57
2023/02/25 16:44:30;;;;;;;1.83;0.60;;;10.60;69.40;;;;;;10362551;28;20034;-59
2023/02/25 16:49:38;;;;;;;2.83;0.73;;;10.60;69.30;;;;;;10361894;28;20020;-58
2023/02/25 16:54:39;;;;;;;1.65;0.40;;;10.60;69.90;;;;;;10361653;28;20569;-58
2023/02/25 16:59:40;;;;;;;2.25;0.65;;;10.50;69.30;;;;;;10360936;28;20026;-58
2023/02/25 17:04:53;;;;;;;1.20;0.60;;;10.50;69.20;;;;;;10362797;28;20224;-58
2023/02/25 17:10:00;;;;;;;2.10;0.50;;;10.50;69.20;;;;;;10360992;28;20109;-59
2023/02/25 17:15:20;;;;;;;2.65;0.40;;;10.50;69.30;;;;;;10360966;28;20439;-58
2023/02/25 17:20:26;;;;;;;0.95;0.45;;;10.50;69.30;;;;;;10361040;28;20425;-58
2023/02/25 17:25:36;;;;;;;2.33;0.40;;;10.50;69.20;;;;;;10361190;28;20034;-58
2023/02/25 17:30:47;;;;;;;1.30;0.70;;;10.50;69.20;;;;;;10369032;28;20022;-58
2023/02/25 17:35:51;;;;;;;1.60;0.50;;;10.40;69.10;;;;;;10368890;28;20042;-57
2023/02/25 17:40:54;;;;;;;2.38;0.65;;;10.40;69.10;;;;;;10344031;28;20049;-58
2023/02/25 17:45:55;;;;;;;1.25;0.52;;;10.40;69.10;;;;;;10327221;28;20020;-58
2023/02/25 17:51:06;;;;;;;1.83;0.60;;;10.40;69.00;;;;;;10327817;28;20038;-59
2023/02/25 17:56:29;;;;;;;1.30;0.50;;;10.40;68.90;;;;;;10327187;28;20007;-58
2023/02/25 18:01:54;;;;;;;6.15;1.48;;;10.40;68.90;;;;;;10325660;28;20482;-58
2023/02/25 18:06:55;;;;;;;1.27;0.50;;;10.40;68.90;;;;;;10325669;28;20050;-59
2023/02/25 18:11:59;;;;;;;1.73;0.63;;;10.40;68.90;;;;;;10325480;28;20049;-59
2023/02/25 18:17:01;;;;;;;0.73;0.43;;;10.40;69.00;;;;;;10325739;28;20363;-59
2023/02/25 18:22:04;;;;;;;0.68;0.47;;;10.40;68.90;;;;;;10325176;28;20062;-58
2023/02/25 18:27:14;;;;;;;1.45;0.50;;;10.40;68.90;;;;;;10325124;28;20069;-59
2023/02/25 18:32:15;;;;;;;1.42;0.50;;;10.30;68.90;;;;;;10331698;28;20065;-58
2023/02/25 18:37:17;;;;;;;2.55;0.57;;;10.30;68.90;;;;;;10364905;28;20165;-59
2023/02/25 18:42:18;;;;;;;1.95;0.50;;;10.40;68.80;;;;;;10364657;28;20038;-58
2023/02/25 18:47:19;;;;;;;1.23;0.70;;;10.50;68.70;;;;;;10364614;28;20022;-58
2023/02/25 18:52:23;;;;;;;1.33;0.40;;;10.60;68.30;;;;;;10365980;28;20604;-58
2023/02/25 18:57:26;;;;;;;1.48;0.60;;;10.70;68.10;;;;;;10363772;28;20433;-59
2023/02/25 19:02:33;;;;;;;1.90;0.50;;;10.80;68.30;;;;;;10338308;28;20038;-59
2023/02/25 19:07:34;;;;;;;1.60;0.52;;;10.90;67.50;;;;;;10321882;28;20102;-59
2023/02/25 19:12:35;;;;;;;3.28;1.00;;;11.00;67.20;;;;;;10322104;28;20110;-58
2023/02/25 19:17:35;;;;;;;0.90;0.40;;;11.10;66.70;;;;;;10331636;28;20563;-58
2023/02/25 19:22:45;;;;;;;1.38;0.50;;;11.30;65.90;;;;;;10364499;28;20118;-58
2023/02/25 19:27:46;;;;;;;0.95;0.47;;;11.60;65.10;;;;;;10363003;28;20080;-58
2023/02/25 19:32:47;;;;;;;0.75;0.60;;;11.90;64.30;;;;;;10346300;28;20366;-58
2023/02/25 19:37:48;;;;;;;1.25;0.50;;;12.10;63.60;;;;;;10362910;28;20077;-58
2023/02/25 19:42:49;;;;;;;2.20;0.40;;;12.30;62.90;;;;;;10363769;28;20030;-58
2023/02/25 19:47:51;;;;;;;2.17;0.70;;;12.50;62.10;;;;;;10363431;28;20555;-58
2023/02/25 19:52:54;;;;;;;2.22;1.02;;;12.70;61.50;;;;;;10361547;28;20374;-58
2023/02/25 19:57:55;;;;;;;2.55;0.82;;;12.80;61.10;;;;;;10362562;28;20025;-58
2023/02/25 20:02:56;;;;;;;1.65;1.10;;;12.90;60.80;;;;;;10361638;28;20485;-59
2023/02/25 20:07:56;;;;;;;2.83;0.82;;;13.00;60.50;;;;;;10362046;28;20449;-57
2023/02/25 20:12:57;;;;;;;1.45;0.80;;;13.10;60.40;;;;;;10361620;28;20493;-59
2023/02/25 20:17:58;;;;;;;1.92;0.85;;;13.10;60.00;;;;;;10361555;28;20510;-59
2023/02/25 20:22:58;;;;;;;2.70;1.10;;;13.30;59.80;;;;;;10362183;28;20069;-59
2023/02/25 20:27:59;;;;;;;2.50;0.73;;;13.40;59.70;;;;;;10362623;28;20101;-58
2023/02/25 20:33:01;;;;;;;2.28;0.68;;;13.40;59.70;;;;;;10360950;28;20021;-57
2023/02/25 20:38:08;;;;;;;1.52;0.73;;;13.40;59.60;;;;;;10360460;28;20519;-58
2023/02/25 20:43:11;;;;;;;2.28;0.70;;;13.50;59.50;;;;;;10360223;28;20030;-57
2023/02/25 20:48:29;;;;;;;2.50;0.95;;;13.60;59.40;;;;;;10361506;28;20018;-58
2023/02/25 20:53:30;;;;;;;2.88;0.98;;;13.60;59.30;;;;;;10360102;28;20486;-58
2023/02/25 20:58:30;;;;;;;2.55;1.10;;;13.70;59.10;;;;;;10361457;28;20021;-58
2023/02/25 21:03:31;;;;;;;2.17;0.90;;;13.80;59.00;;;;;;10359501;28;20141;-57
2023/02/25 21:08:33;;;;;;;2.63;1.20;;;13.80;59.00;;;;;;10360944;28;20107;-58
2023/02/25 21:13:35;;;;;;;2.85;1.45;;;13.80;58.90;;;;;;10359563;28;20083;-58
2023/02/25 21:18:35;;;;;;;3.22;1.20;;;13.90;58.80;;;;;;10359837;28;20026;-58
2023/02/25 21:23:36;;;;;;;2.42;0.80;;;13.90;58.70;;;;;;10359220;28;20055;-58
2023/02/25 21:28:39;;;;;;;2.90;1.20;;;14.00;58.80;;;;;;10359326;28;20565;-57
2023/02/25 21:33:41;;;;;;;2.17;0.90;;;14.10;58.60;;;;;;10359350;28;20069;-58
2023/02/25 21:38:42;;;;;;;3.17;1.00;;;14.10;58.50;;;;;;10359083;28;20045;-58
2023/02/25 21:43:43;;;;;;;2.28;0.90;;;14.10;58.50;;;;;;10360556;28;20389;-57
2023/02/25 21:48:46;;;;;;;2.88;1.35;;;14.20;58.50;;;;;;10359016;28;20025;-58
2023/02/25 21:53:47;;;;;;;1.83;0.82;;;14.20;58.40;;;;;;10359125;28;20030;-58
2023/02/25 21:58:52;;;;;;;2.45;1.23;;;14.20;58.40;;;;;;10358822;28;20018;-58
2023/02/25 22:03:54;;;;;;;2.50;1.02;;;14.30;58.40;;;;;;10359189;28;20022;-58
2023/02/25 22:08:55;;;;;;;2.53;1.15;;;14.30;58.20;;;;;;10358646;28;20029;-58
2023/02/25 22:13:59;;;;;;;5.05;1.20;;;14.30;58.30;;;;;;10362705;28;20024;-58
2023/02/25 22:18:59;;;;;;;4.40;1.10;;;14.40;58.20;;;;;;10349382;28;20018;-58
2023/02/25 22:24:02;;;;;;;2.20;0.77;;;14.30;58.20;;;;;;10365906;28;20037;-58
2023/02/25 22:29:07;;;;;;;1.92;0.88;;;14.40;58.10;;;;;;10365249;28;20018;-58
2023/02/25 22:34:08;;;;;;;2.47;1.30;;;14.40;58.20;;;;;;10349019;28;20030;-59
2023/02/25 22:39:09;;;;;;;1.63;0.80;;;14.40;58.20;;;;;;10341434;28;20045;-59
2023/02/25 22:44:10;;;;;;;1.50;0.75;;;14.50;58.20;;;;;;10324761;28;20026;-58
2023/02/25 22:49:10;;;;;;;2.30;1.00;;;14.50;58.20;;;;;;10325515;28;20018;-58
2023/02/25 22:54:15;;;;;;;1.58;0.80;;;14.50;58.00;;;;;;10307627;28;20058;-58
2023/02/25 22:59:16;;;;;;;1.67;0.70;;;14.60;57.90;;;;;;10324972;28;20026;-58
2023/02/25 23:04:17;;;;;;;1.52;0.73;;;14.60;58.00;;;;;;10324637;28;20465;-59
2023/02/25 23:09:17;;;;;;;2.92;1.05;;;14.60;57.90;;;;;;10324154;28;20022;-59
2023/02/25 23:14:18;;;;;;;1.48;0.70;;;14.70;57.80;;;;;;10323267;28;20113;-59
2023/02/25 23:19:20;;;;;;;2.17;0.80;;;14.70;57.70;;;;;;10324362;28;20558;-58
2023/02/25 23:24:21;;;;;;;1.40;0.60;;;14.70;57.80;;;;;;10306003;28;20038;-58
2023/02/25 23:29:22;;;;;;;2.10;0.90;;;14.70;57.80;;;;;;10323932;28;20061;-58
2023/02/25 23:34:23;;;;;;;1.92;0.82;;;14.70;57.80;;;;;;10345167;28;20132;-58
2023/02/25 23:39:24;;;;;;;1.63;0.70;;;14.70;58.00;;;;;;10338499;28;20113;-59
2023/02/25 23:44:25;;;;;;;3.50;1.00;;;14.70;58.10;;;;;;10321781;28;20034;-59
2023/02/25 23:49:25;;;;;;;1.98;0.73;;;14.70;58.10;;;;;;10323487;28;20496;-58
2023/02/25 23:54:26;;;;;;;1.25;0.70;;;14.70;57.90;;;;;;10321679;28;20027;-59
2023/02/25 23:59:27;;;;;;;1.65;1.13;;;14.80;57.90;;;;;;10321532;28;20105;-58
